Time;durP1;ratioP1;P1;durP2;ratioP2;P2;SDS_P1;SDS_P2;PMS_P1;PMS_P2;Temp;Humidity;BMP_temperature;BMP_pressure;BME280_temperature;BME280_humidity;BME280_pressure;Samples;Min_cycle;Max_cycle;Signal;HPM_P1;HPM_P2
2022/01/29 00:00:55;;;;;;;43.67;22.27;;;7.40;99.90;;;;;;5095095;28;20184;-61
2022/01/29 00:03:22;;;;;;;50.03;21.90;;;7.50;99.90;;;;;;5093836;28;20272;-62
2022/01/29 00:05:48;;;;;;;45.03;21.40;;;7.40;99.90;;;;;;5078498;28;20245;-61
2022/01/29 00:08:15;;;;;;;53.00;20.03;;;7.50;99.90;;;;;;5094225;28;20230;-61
2022/01/29 00:10:42;;;;;;;43.53;21.50;;;7.50;99.90;;;;;;5110965;28;20181;-62
2022/01/29 00:13:08;;;;;;;46.13;21.63;;;7.50;99.90;;;;;;5093829;28;20196;-61
2022/01/29 00:15:34;;;;;;;44.57;19.70;;;7.50;99.90;;;;;;5092802;28;20261;-61
2022/01/29 00:18:00;;;;;;;45.10;21.63;;;7.50;99.90;;;;;;5094442;28;20222;-62
2022/01/29 00:20:25;;;;;;;44.43;22.17;;;7.50;99.90;;;;;;5093812;28;20188;-62
2022/01/29 00:22:51;;;;;;;47.10;22.60;;;7.50;99.90;;;;;;5093429;28;20185;-61
2022/01/29 00:25:17;;;;;;;47.60;23.40;;;7.40;99.90;;;;;;5094498;28;20185;-63
2022/01/29 00:27:43;;;;;;;46.57;20.83;;;7.40;99.90;;;;;;5079361;28;20276;-66
2022/01/29 00:30:13;;;;;;;43.17;21.00;;;7.30;99.90;;;;;;5127356;27;20188;-61
2022/01/29 00:32:39;;;;;;;47.10;22.03;;;7.40;99.90;;;;;;5093283;28;20196;-61
2022/01/29 00:35:05;;;;;;;47.37;21.43;;;7.40;99.90;;;;;;5093312;28;20188;-62
2022/01/29 00:37:32;;;;;;;46.00;22.77;;;7.50;99.90;;;;;;5095113;28;20549;-63
2022/01/29 00:39:57;;;;;;;49.10;22.90;;;7.50;99.90;;;;;;5094005;28;20548;-61
2022/01/29 00:42:23;;;;;;;39.77;19.20;;;7.40;99.90;;;;;;5094402;28;20357;-61
2022/01/29 00:44:50;;;;;;;42.27;20.43;;;7.50;99.90;;;;;;5126182;27;20602;-62
2022/01/29 00:47:16;;;;;;;45.73;21.00;;;7.40;99.90;;;;;;5093835;28;20195;-61
2022/01/29 00:49:42;;;;;;;40.37;18.30;;;7.40;99.90;;;;;;5093246;28;20213;-61
2022/01/29 00:52:08;;;;;;;47.10;21.53;;;7.40;99.90;;;;;;5127312;27;20184;-62
2022/01/29 00:54:34;;;;;;;40.97;20.13;;;7.40;99.90;;;;;;5126390;27;20263;-61
2022/01/29 00:56:59;;;;;;;43.90;19.37;;;7.30;99.90;;;;;;5126942;27;20216;-61
2022/01/29 00:59:25;;;;;;;42.70;19.13;;;7.50;99.90;;;;;;5094312;28;20246;-61
2022/01/29 01:01:51;;;;;;;46.63;21.77;;;7.40;99.90;;;;;;5093143;28;20665;-61
2022/01/29 01:04:17;;;;;;;44.80;18.50;;;7.20;99.90;;;;;;5126692;27;20265;-61
2022/01/29 01:06:42;;;;;;;46.33;19.23;;;7.20;99.90;;;;;;5092921;28;20189;-61
2022/01/29 01:09:08;;;;;;;52.77;21.07;;;7.20;99.90;;;;;;5093776;28;20626;-62
2022/01/29 01:11:34;;;;;;;47.80;20.93;;;7.20;99.90;;;;;;5093793;28;20185;-61
2022/01/29 01:13:59;;;;;;;44.03;22.20;;;7.10;99.90;;;;;;5094100;28;20208;-61
2022/01/29 01:16:25;;;;;;;52.43;20.43;;;7.20;99.90;;;;;;5092991;28;20213;-61
2022/01/29 01:18:51;;;;;;;52.10;19.73;;;7.20;99.90;;;;;;5088091;28;20221;-61
2022/01/29 01:21:17;;;;;;;50.17;22.03;;;7.20;99.90;;;;;;5119992;27;20196;-61
2022/01/29 01:23:42;;;;;;;49.43;21.27;;;7.10;99.90;;;;;;5109713;28;20184;-61
2022/01/29 01:26:08;;;;;;;49.90;21.37;;;7.20;99.90;;;;;;5092204;28;20196;-63
2022/01/29 01:28:34;;;;;;;53.27;22.13;;;7.20;99.90;;;;;;5093708;28;20195;-61
2022/01/29 01:31:00;;;;;;;50.77;23.43;;;7.20;99.90;;;;;;5125687;27;20192;-61
2022/01/29 01:33:26;;;;;;;49.13;21.53;;;7.20;99.90;;;;;;5093264;28;20262;-61
2022/01/29 01:35:56;;;;;;;54.03;22.03;;;7.40;99.90;;;;;;5093207;28;20254;-61
2022/01/29 01:38:28;;;;;;;49.43;23.00;;;7.40;99.90;;;;;;5110475;27;20188;-63
2022/01/29 01:40:59;;;;;;;46.50;21.47;;;7.20;99.90;;;;;;5107473;28;20644;-61
2022/01/29 01:43:25;;;;;;;49.73;21.40;;;7.40;99.90;;;;;;5083071;28;20280;-61
2022/01/29 01:45:51;;;;;;;53.87;22.27;;;7.40;99.90;;;;;;5078821;28;20729;-61
2022/01/29 01:48:17;;;;;;;49.80;23.00;;;7.30;99.90;;;;;;5093000;28;20238;-61
2022/01/29 01:50:43;;;;;;;47.37;21.17;;;7.20;99.90;;;;;;5093289;28;20290;-61
2022/01/29 01:53:08;;;;;;;47.30;21.20;;;7.40;99.90;;;;;;5126145;27;20275;-61
2022/01/29 01:55:34;;;;;;;46.13;20.07;;;7.40;99.90;;;;;;5092474;28;20244;-61
2022/01/29 01:58:00;;;;;;;50.10;20.67;;;7.40;99.90;;;;;;5091455;28;20204;-61
2022/01/29 02:00:26;;;;;;;58.33;23.87;;;7.50;99.90;;;;;;5124994;27;20238;-63
2022/01/29 02:02:52;;;;;;;46.23;21.17;;;7.40;99.90;;;;;;5081777;28;20195;-61
2022/01/29 02:05:18;;;;;;;47.33;21.20;;;7.30;99.90;;;;;;5087568;28;20184;-61
2022/01/29 02:07:45;;;;;;;56.27;20.93;;;7.30;99.90;;;;;;5091865;28;20284;-61
2022/01/29 02:10:12;;;;;;;47.73;19.87;;;7.40;99.90;;;;;;5092186;28;20237;-61
2022/01/29 02:12:48;;;;;;;42.90;19.83;;;7.60;99.90;;;;;;5092728;28;20204;-61
2022/01/29 02:15:15;;;;;;;48.97;19.70;;;7.50;99.90;;;;;;5092675;28;20644;-61
2022/01/29 02:17:41;;;;;;;49.13;20.90;;;7.50;99.90;;;;;;5092902;28;20196;-61
2022/01/29 02:20:08;;;;;;;41.40;19.97;;;7.50;99.90;;;;;;5092453;28;20189;-61
2022/01/29 02:22:33;;;;;;;45.63;19.23;;;7.50;99.90;;;;;;5108106;28;20231;-63
2022/01/29 02:24:59;;;;;;;47.70;20.37;;;7.40;99.90;;;;;;5091639;28;20234;-61
2022/01/29 02:27:25;;;;;;;43.17;18.47;;;7.40;99.90;;;;;;5088352;28;20564;-61
2022/01/29 02:29:50;;;;;;;43.17;20.80;;;7.40;99.90;;;;;;5096956;28;20215;-60
2022/01/29 02:32:16;;;;;;;47.73;22.10;;;7.40;99.90;;;;;;5125093;27;20228;-61
2022/01/29 02:34:44;;;;;;;47.73;21.93;;;7.40;99.90;;;;;;5092774;28;20195;-61
2022/01/29 02:37:10;;;;;;;42.17;18.77;;;7.20;99.90;;;;;;5100734;28;20212;-61
2022/01/29 02:39:35;;;;;;;45.57;21.73;;;7.30;99.90;;;;;;5077729;28;20270;-61
2022/01/29 02:42:02;;;;;;;46.53;19.43;;;7.40;99.90;;;;;;5083923;28;20192;-61
2022/01/29 02:44:27;;;;;;;42.80;20.10;;;7.30;99.90;;;;;;5092378;28;20193;-61
2022/01/29 02:46:56;;;;;;;39.17;19.97;;;7.30;99.90;;;;;;5091994;28;20184;-62
2022/01/29 02:49:24;;;;;;;30.93;15.17;;;7.40;99.90;;;;;;5107428;28;20257;-61
2022/01/29 02:51:56;;;;;;;36.40;19.33;;;7.40;99.90;;;;;;5092302;28;20230;-62
2022/01/29 02:54:24;;;;;;;40.47;18.13;;;7.60;99.90;;;;;;5092156;28;20634;-61
2022/01/29 02:56:50;;;;;;;38.20;16.70;;;7.50;99.90;;;;;;5093852;28;20219;-62
2022/01/29 02:59:15;;;;;;;35.73;15.73;;;7.60;99.90;;;;;;5096080;28;20189;-62
2022/01/29 03:01:42;;;;;;;36.10;17.17;;;7.50;99.90;;;;;;5129745;27;20210;-61
2022/01/29 03:04:08;;;;;;;36.87;16.03;;;7.70;99.90;;;;;;5127916;27;20192;-60
2022/01/29 03:06:34;;;;;;;39.23;18.00;;;7.70;99.90;;;;;;5096064;28;20192;-60
2022/01/29 03:09:00;;;;;;;36.97;15.33;;;7.60;99.90;;;;;;5079618;28;20181;-61
2022/01/29 03:11:26;;;;;;;33.97;17.07;;;7.60;99.90;;;;;;5121728;27;20188;-61
2022/01/29 03:13:53;;;;;;;31.80;16.77;;;7.50;99.90;;;;;;5096511;28;20660;-61
2022/01/29 03:16:19;;;;;;;37.97;15.30;;;7.60;99.90;;;;;;5096216;28;20212;-61
2022/01/29 03:18:45;;;;;;;33.23;15.27;;;7.70;99.90;;;;;;5096121;28;20195;-61
2022/01/29 03:21:10;;;;;;;29.37;14.67;;;7.80;99.90;;;;;;5095219;28;20192;-61
2022/01/29 03:23:36;;;;;;;31.07;15.97;;;7.80;99.90;;;;;;5128971;27;20197;-61
2022/01/29 03:26:04;;;;;;;36.50;16.03;;;7.80;99.90;;;;;;5095849;28;20279;-61
2022/01/29 03:28:30;;;;;;;33.73;14.20;;;7.90;99.90;;;;;;5095430;28;20184;-61
2022/01/29 03:30:56;;;;;;;32.90;15.10;;;8.00;99.90;;;;;;5094070;28;20191;-61
2022/01/29 03:33:23;;;;;;;23.90;13.30;;;7.90;99.90;;;;;;5127929;27;20189;-61
2022/01/29 03:35:49;;;;;;;30.97;14.90;;;7.80;99.90;;;;;;5095432;28;20209;-61
2022/01/29 03:38:15;;;;;;;29.77;14.97;;;8.00;99.90;;;;;;5128975;27;20188;-61
2022/01/29 03:40:42;;;;;;;23.87;11.83;;;7.90;99.90;;;;;;5095137;28;20212;-63
2022/01/29 03:43:11;;;;;;;28.97;14.87;;;7.90;99.90;;;;;;5096277;28;20622;-61
2022/01/29 03:45:37;;;;;;;28.27;14.30;;;8.10;99.90;;;;;;5094584;28;20188;-61
2022/01/29 03:48:06;;;;;;;27.33;14.67;;;8.10;99.90;;;;;;5090195;28;20661;-61
2022/01/29 03:50:36;;;;;;;33.43;16.13;;;8.10;99.90;;;;;;5089536;28;20272;-62
2022/01/29 03:53:02;;;;;;;30.87;14.70;;;8.00;99.90;;;;;;5095128;28;20215;-62
2022/01/29 03:55:28;;;;;;;34.27;15.43;;;7.90;99.90;;;;;;5096077;28;20177;-61
2022/01/29 03:57:53;;;;;;;25.40;13.07;;;7.90;99.90;;;;;;5095852;28;20543;-61
2022/01/29 04:00:20;;;;;;;29.30;15.57;;;7.90;99.90;;;;;;5095356;28;20633;-61
2022/01/29 04:02:45;;;;;;;31.57;14.63;;;8.00;99.90;;;;;;5095671;28;20184;-61
2022/01/29 04:05:11;;;;;;;35.60;15.47;;;8.10;99.90;;;;;;5128312;27;20177;-60
2022/01/29 04:07:39;;;;;;;27.83;14.97;;;8.10;99.90;;;;;;5128155;27;20188;-61
2022/01/29 04:10:05;;;;;;;29.17;15.23;;;8.10;99.90;;;;;;5127309;27;20181;-61
2022/01/29 04:12:37;;;;;;;33.90;15.50;;;8.10;99.90;;;;;;5094929;28;20252;-61
2022/01/29 04:15:03;;;;;;;28.70;13.53;;;8.10;99.90;;;;;;5110166;28;20181;-61
2022/01/29 04:17:28;;;;;;;31.57;14.73;;;8.10;99.90;;;;;;5093708;28;20212;-61
2022/01/29 04:19:54;;;;;;;26.83;15.20;;;8.10;99.90;;;;;;5093563;28;20191;-63
2022/01/29 04:22:20;;;;;;;34.30;16.70;;;8.10;99.90;;;;;;5090825;28;20268;-63
2022/01/29 04:24:45;;;;;;;29.23;14.03;;;8.10;99.90;;;;;;5093652;28;20188;-62
2022/01/29 04:27:21;;;;;;;27.90;14.77;;;8.10;99.90;;;;;;5094467;28;20207;-63
2022/01/29 04:29:59;;;;;;;26.43;13.57;;;8.10;99.90;;;;;;5094929;28;20249;-63
2022/01/29 04:32:35;;;;;;;24.70;11.73;;;8.10;99.90;;;;;;5107786;28;20586;-63
2022/01/29 04:35:00;;;;;;;24.33;13.77;;;8.10;99.90;;;;;;5094931;28;20271;-63
2022/01/29 04:37:26;;;;;;;23.00;12.47;;;8.10;99.90;;;;;;5109620;28;20745;-63
2022/01/29 04:39:52;;;;;;;25.47;13.73;;;8.10;99.90;;;;;;5094060;28;20220;-63
2022/01/29 04:42:17;;;;;;;27.77;14.13;;;8.20;99.90;;;;;;5093319;28;20687;-63
2022/01/29 04:44:43;;;;;;;25.60;14.53;;;8.30;99.90;;;;;;5093329;28;20665;-63
2022/01/29 04:47:09;;;;;;;21.50;11.17;;;8.40;99.90;;;;;;5080073;28;20205;-63
2022/01/29 04:49:34;;;;;;;26.10;12.03;;;8.40;99.90;;;;;;5074135;28;20181;-63
2022/01/29 04:52:00;;;;;;;22.63;12.43;;;8.50;99.90;;;;;;5092837;28;20242;-62
2022/01/29 04:54:25;;;;;;;22.60;12.03;;;8.60;99.90;;;;;;5126065;27;20272;-63
2022/01/29 04:56:51;;;;;;;25.83;12.60;;;8.50;99.90;;;;;;5093093;28;20618;-63
2022/01/29 04:59:17;;;;;;;22.57;11.73;;;8.40;99.90;;;;;;5127125;27;20200;-64
2022/01/29 05:01:42;;;;;;;22.27;12.17;;;8.50;99.90;;;;;;5126805;27;20211;-63
2022/01/29 05:04:08;;;;;;;22.57;11.93;;;8.50;99.90;;;;;;5093936;28;20185;-63
2022/01/29 05:06:34;;;;;;;26.17;14.00;;;8.70;99.90;;;;;;5093278;28;20298;-63
2022/01/29 05:08:59;;;;;;;23.47;11.80;;;8.70;99.90;;;;;;5093137;28;20189;-63
2022/01/29 05:11:25;;;;;;;27.50;13.93;;;8.60;99.90;;;;;;5091346;28;20181;-63
2022/01/29 05:13:51;;;;;;;24.83;13.63;;;8.40;99.90;;;;;;5092650;28;20704;-63
2022/01/29 05:27:13;;;;;;;25.13;13.40;;;8.50;99.90;;;;;;5093078;28;20261;-62
2022/01/29 05:29:39;;;;;;;28.30;13.50;;;8.60;99.90;;;;;;5089284;28;20652;-63
2022/01/29 05:32:07;;;;;;;26.10;13.13;;;8.70;99.90;;;;;;5121583;27;20185;-62
2022/01/29 05:34:34;;;;;;;19.20;11.60;;;8.60;99.90;;;;;;5093236;28;20211;-62
2022/01/29 05:37:02;;;;;;;25.33;13.13;;;8.60;99.90;;;;;;5092822;28;20640;-62
2022/01/29 05:39:27;;;;;;;24.00;13.03;;;8.60;99.90;;;;;;5088656;28;20216;-62
2022/01/29 05:41:54;;;;;;;20.03;12.60;;;8.50;99.90;;;;;;5084122;28;20192;-62
2022/01/29 05:44:20;;;;;;;23.13;12.77;;;8.70;99.90;;;;;;5125451;27;20185;-62
2022/01/29 05:46:45;;;;;;;24.60;12.30;;;8.80;99.90;;;;;;5094210;28;20208;-63
2022/01/29 05:49:11;;;;;;;23.03;10.63;;;8.60;99.90;;;;;;5076252;28;20216;-62
2022/01/29 05:51:37;;;;;;;21.30;10.53;;;8.60;99.90;;;;;;5122237;27;20208;-62
2022/01/29 05:54:03;;;;;;;25.33;12.27;;;8.70;99.90;;;;;;5097426;28;20236;-61
2022/01/29 05:56:29;;;;;;;22.63;12.17;;;8.70;99.90;;;;;;5092305;28;20227;-62
2022/01/29 05:58:56;;;;;;;25.63;12.37;;;8.70;99.90;;;;;;5092957;28;20216;-61
2022/01/29 06:01:22;;;;;;;22.27;12.00;;;8.80;99.90;;;;;;5076169;28;20646;-62
2022/01/29 06:03:48;;;;;;;22.80;11.40;;;8.80;99.90;;;;;;5092829;28;20216;-63
2022/01/29 06:06:14;;;;;;;20.63;10.13;;;8.80;99.90;;;;;;5093016;28;20212;-64
2022/01/29 06:08:40;;;;;;;20.27;10.40;;;8.80;99.90;;;;;;5093024;28;20313;-63
2022/01/29 06:11:05;;;;;;;22.00;12.87;;;8.90;99.90;;;;;;5091822;28;20196;-62
2022/01/29 06:13:31;;;;;;;20.10;10.67;;;8.90;99.90;;;;;;5091723;28;20284;-64
2022/01/29 06:15:57;;;;;;;20.53;10.53;;;8.80;99.90;;;;;;5091003;28;20212;-64
2022/01/29 06:18:24;;;;;;;20.87;10.33;;;8.80;99.90;;;;;;5091978;28;20214;-64
2022/01/29 06:20:57;;;;;;;16.17;10.13;;;9.00;99.90;;;;;;5091647;28;20188;-64
2022/01/29 06:23:30;;;;;;;19.37;11.73;;;9.00;99.90;;;;;;5092087;28;20180;-64
2022/01/29 06:25:57;;;;;;;23.87;10.60;;;9.20;99.90;;;;;;5101260;28;20181;-64
2022/01/29 06:28:22;;;;;;;18.63;11.27;;;9.10;99.90;;;;;;5123884;27;20730;-65
2022/01/29 06:30:48;;;;;;;24.30;12.33;;;9.10;99.90;;;;;;5115660;27;20224;-65
2022/01/29 06:33:14;;;;;;;19.33;11.07;;;9.10;99.90;;;;;;5090944;28;20211;-64
2022/01/29 06:35:42;;;;;;;18.37;9.43;;;9.10;99.90;;;;;;5092271;28;20251;-65
2022/01/29 06:38:09;;;;;;;17.93;10.77;;;9.30;99.90;;;;;;5090885;28;20181;-64
2022/01/29 06:40:36;;;;;;;20.00;9.73;;;9.20;99.90;;;;;;5092607;28;20180;-64
2022/01/29 06:43:04;;;;;;;19.53;10.53;;;9.10;99.90;;;;;;5107922;28;20541;-64
2022/01/29 06:45:30;;;;;;;17.30;10.07;;;9.20;99.90;;;;;;5125519;27;20618;-64
2022/01/29 06:47:56;;;;;;;20.17;11.37;;;9.10;99.90;;;;;;5091370;28;20180;-64
2022/01/29 06:50:23;;;;;;;19.70;10.87;;;9.00;99.90;;;;;;5092629;28;20207;-64
2022/01/29 06:52:49;;;;;;;18.23;11.37;;;9.00;99.90;;;;;;5086508;28;20181;-64
2022/01/29 06:55:15;;;;;;;21.53;11.40;;;8.90;99.90;;;;;;5107756;28;20196;-64
2022/01/29 06:57:40;;;;;;;21.13;11.77;;;9.00;99.90;;;;;;5125107;28;20208;-64
2022/01/29 07:00:07;;;;;;;17.40;10.27;;;9.00;99.90;;;;;;5108346;28;20197;-64
2022/01/29 07:02:34;;;;;;;23.23;11.57;;;9.20;99.90;;;;;;5092386;28;20192;-64
2022/01/29 07:05:01;;;;;;;17.27;10.80;;;9.20;99.90;;;;;;5107428;28;20203;-64
2022/01/29 07:07:27;;;;;;;18.30;10.83;;;9.20;99.90;;;;;;5092166;28;20334;-65
2022/01/29 07:09:53;;;;;;;19.67;11.27;;;9.30;99.90;;;;;;5092168;28;20241;-64
2022/01/29 07:12:19;;;;;;;23.20;11.40;;;9.30;99.90;;;;;;5091983;28;20196;-64
2022/01/29 07:14:48;;;;;;;20.57;10.70;;;9.30;99.90;;;;;;5082010;28;20197;-64
2022/01/29 07:17:17;;;;;;;21.77;11.73;;;9.30;99.90;;;;;;5088432;28;20289;-64
2022/01/29 07:19:44;;;;;;;22.17;10.63;;;9.30;99.90;;;;;;5114670;28;20200;-67
2022/01/29 07:22:10;;;;;;;19.60;10.50;;;9.30;99.90;;;;;;5091902;28;20649;-66
2022/01/29 07:24:37;;;;;;;20.23;10.27;;;9.30;99.90;;;;;;5091925;28;20259;-64
2022/01/29 07:27:04;;;;;;;18.27;11.13;;;9.20;99.90;;;;;;5090326;28;20204;-64
2022/01/29 07:29:30;;;;;;;22.80;11.17;;;9.30;99.90;;;;;;5125070;28;20193;-65
2022/01/29 07:31:57;;;;;;;19.63;10.73;;;9.40;99.90;;;;;;5092070;28;20192;-65
2022/01/29 07:34:23;;;;;;;20.70;10.73;;;9.50;99.90;;;;;;5121489;28;20246;-67
2022/01/29 07:36:53;;;;;;;19.67;10.70;;;9.50;99.90;;;;;;5081993;28;20212;-64
2022/01/29 07:39:20;;;;;;;19.97;10.53;;;9.60;99.90;;;;;;5124433;28;20200;-65
2022/01/29 07:41:45;;;;;;;24.33;9.20;;;9.60;99.90;;;;;;5092334;28;20555;-64
2022/01/29 07:44:11;;;;;;;19.77;10.17;;;9.70;99.90;;;;;;5108364;28;20181;-65
2022/01/29 07:46:37;;;;;;;20.70;10.80;;;9.70;99.90;;;;;;5093094;28;20215;-65
2022/01/29 07:49:03;;;;;;;19.63;10.07;;;9.60;99.90;;;;;;5110498;28;20560;-65
2022/01/29 07:51:28;;;;;;;19.57;10.27;;;9.70;99.90;;;;;;5095703;28;20192;-64
2022/01/29 07:53:54;;;;;;;20.73;10.80;;;9.80;99.90;;;;;;5095339;28;20191;-65
2022/01/29 07:56:23;;;;;;;19.63;10.67;;;9.80;99.90;;;;;;5109317;28;20212;-65
2022/01/29 07:58:49;;;;;;;18.20;9.53;;;9.80;99.90;;;;;;5078757;28;20226;-65
2022/01/29 08:01:15;;;;;;;18.00;9.70;;;9.80;99.90;;;;;;5093132;28;20217;-64
2022/01/29 08:03:42;;;;;;;17.40;9.23;;;9.90;99.90;;;;;;5110474;28;20241;-65
2022/01/29 08:06:08;;;;;;;19.03;11.57;;;9.80;99.90;;;;;;5082539;28;20192;-64
2022/01/29 08:08:34;;;;;;;19.27;10.03;;;9.90;99.90;;;;;;5094317;28;20192;-64
2022/01/29 08:11:00;;;;;;;17.47;10.77;;;9.90;99.90;;;;;;5094234;28;20196;-64
2022/01/29 08:13:25;;;;;;;17.77;10.33;;;10.00;99.90;;;;;;5127645;27;20250;-65
2022/01/29 08:15:51;;;;;;;20.43;10.20;;;10.00;99.90;;;;;;5128248;27;20693;-64
2022/01/29 08:18:17;;;;;;;19.37;10.27;;;10.00;99.90;;;;;;5089935;28;20276;-65
2022/01/29 08:20:42;;;;;;;15.20;7.90;;;9.90;99.90;;;;;;5089162;28;20195;-65
2022/01/29 08:23:09;;;;;;;16.07;8.93;;;9.90;99.90;;;;;;5092134;28;20673;-65
2022/01/29 08:25:36;;;;;;;15.47;8.40;;;10.00;99.90;;;;;;5075215;28;20613;-64
2022/01/29 08:28:01;;;;;;;17.93;10.07;;;10.00;99.90;;;;;;5106039;28;20185;-65
2022/01/29 08:30:27;;;;;;;14.07;8.93;;;10.10;99.90;;;;;;5113379;27;20204;-65
2022/01/29 08:32:53;;;;;;;13.07;7.33;;;10.20;99.90;;;;;;5093317;28;20189;-65
2022/01/29 08:35:18;;;;;;;15.80;8.23;;;10.20;99.90;;;;;;5094435;28;20238;-64
2022/01/29 08:37:45;;;;;;;14.70;7.00;;;10.20;99.90;;;;;;5126690;27;20215;-65
2022/01/29 08:40:11;;;;;;;11.83;6.87;;;10.30;99.90;;;;;;5127860;27;20195;-64
2022/01/29 08:42:38;;;;;;;14.60;9.47;;;10.20;99.90;;;;;;5127785;27;20196;-64
2022/01/29 08:45:05;;;;;;;13.87;7.60;;;10.20;99.90;;;;;;5094583;28;20193;-64
2022/01/29 08:47:31;;;;;;;11.07;6.67;;;10.20;99.90;;;;;;5094323;28;20191;-64
2022/01/29 08:49:57;;;;;;;9.90;6.30;;;10.10;99.90;;;;;;5093141;28;20189;-65
2022/01/29 08:52:22;;;;;;;12.87;9.17;;;10.20;99.90;;;;;;5093082;28;20270;-63
2022/01/29 08:54:48;;;;;;;9.40;6.50;;;10.20;99.90;;;;;;5092021;28;20255;-62
2022/01/29 08:57:14;;;;;;;7.23;5.37;;;10.40;99.90;;;;;;5093629;28;20724;-63
2022/01/29 08:59:39;;;;;;;11.47;6.43;;;10.30;99.90;;;;;;5085607;28;20266;-63
2022/01/29 09:02:05;;;;;;;8.90;5.90;;;10.30;99.90;;;;;;5127088;27;20188;-63
2022/01/29 09:04:31;;;;;;;8.03;5.57;;;10.30;99.90;;;;;;5093852;28;20189;-63
2022/01/29 09:06:56;;;;;;;9.37;6.17;;;10.30;99.90;;;;;;5092440;28;20193;-64
2022/01/29 09:09:26;;;;;;;8.73;5.47;;;10.30;99.90;;;;;;5094035;28;20195;-64
2022/01/29 09:11:53;;;;;;;9.27;5.40;;;10.20;99.90;;;;;;5108251;28;20195;-64
2022/01/29 09:14:20;;;;;;;10.23;7.27;;;10.40;99.90;;;;;;5092646;28;20205;-64
2022/01/29 09:16:46;;;;;;;8.03;5.00;;;10.40;99.90;;;;;;5093847;28;20307;-64
2022/01/29 09:19:12;;;;;;;10.33;6.10;;;10.40;99.90;;;;;;5125899;27;20248;-63
2022/01/29 09:21:38;;;;;;;11.73;6.90;;;10.40;99.90;;;;;;5089182;28;20223;-64
2022/01/29 09:24:04;;;;;;;10.40;6.07;;;10.40;99.90;;;;;;5082770;28;20187;-64
2022/01/29 09:26:29;;;;;;;8.70;4.97;;;10.40;99.90;;;;;;5093286;28;20193;-64
2022/01/29 09:28:55;;;;;;;8.60;6.30;;;10.30;99.90;;;;;;5126562;27;20192;-64
2022/01/29 09:31:21;;;;;;;9.17;6.20;;;10.30;99.90;;;;;;5093324;28;20188;-64
2022/01/29 09:33:47;;;;;;;11.37;6.90;;;10.30;99.90;;;;;;5092962;28;20200;-64
2022/01/29 09:36:13;;;;;;;11.13;7.10;;;10.40;99.90;;;;;;5092374;28;20216;-64
2022/01/29 09:38:39;;;;;;;11.43;5.93;;;10.40;99.90;;;;;;5092674;28;20187;-65
2022/01/29 09:41:05;;;;;;;8.13;5.27;;;10.50;99.90;;;;;;5109623;28;20234;-65
2022/01/29 09:43:33;;;;;;;11.37;6.37;;;10.40;99.90;;;;;;5126061;27;20552;-65
2022/01/29 09:45:59;;;;;;;9.30;5.67;;;10.60;99.90;;;;;;5126101;27;20197;-65
2022/01/29 09:48:28;;;;;;;10.97;6.40;;;10.70;99.90;;;;;;5091242;28;20177;-65
2022/01/29 09:50:56;;;;;;;9.20;5.37;;;10.70;99.90;;;;;;5094089;28;20169;-65
2022/01/29 09:53:25;;;;;;;10.07;5.73;;;10.80;99.90;;;;;;5092562;28;20582;-67
2022/01/29 09:55:55;;;;;;;11.20;5.93;;;10.70;99.90;;;;;;5076520;28;20265;-65
2022/01/29 09:58:20;;;;;;;9.20;6.03;;;10.70;99.90;;;;;;5092227;28;20626;-65
2022/01/29 10:00:46;;;;;;;5.77;4.93;;;10.80;99.90;;;;;;5091698;28;20312;-66
2022/01/29 10:03:13;;;;;;;10.20;6.63;;;10.90;99.90;;;;;;5091352;28;20223;-65
2022/01/29 10:05:44;;;;;;;8.93;6.00;;;10.90;99.90;;;;;;5093197;28;20290;-65
2022/01/29 10:08:10;;;;;;;8.97;5.33;;;11.00;99.90;;;;;;5092269;28;20193;-65
2022/01/29 10:10:50;;;;;;;5.30;4.37;;;11.10;99.90;;;;;;5092957;28;20177;-66
2022/01/29 10:13:33;;;;;;;11.70;5.33;;;11.20;99.90;;;;;;5080627;28;20192;-65
2022/01/29 10:16:15;;;;;;;6.13;4.87;;;11.10;99.90;;;;;;5091769;28;20667;-65
2022/01/29 10:19:03;;;;;;;8.27;4.43;;;11.20;99.90;;;;;;5125660;27;20625;-65
2022/01/29 10:21:37;;;;;;;6.60;5.50;;;11.30;99.90;;;;;;5091891;28;20172;-65
2022/01/29 10:24:12;;;;;;;7.00;4.53;;;11.30;99.90;;;;;;5093397;28;20521;-65
2022/01/29 10:26:41;;;;;;;5.10;4.28;;;11.40;99.90;;;;;;5072974;28;20195;-64
2022/01/29 10:29:16;;;;;;;7.90;4.85;;;11.40;99.90;;;;;;5073214;28;20224;-65
2022/01/29 10:31:51;;;;;;;6.15;4.80;;;11.50;99.90;;;;;;5074831;28;20626;-64
2022/01/29 10:34:18;;;;;;;6.35;3.97;;;11.60;99.90;;;;;;5093512;28;20165;-64
2022/01/29 10:36:43;;;;;;;5.30;4.07;;;11.60;99.90;;;;;;5087018;28;20209;-64
2022/01/29 10:39:09;;;;;;;7.65;4.10;;;11.70;99.90;;;;;;5091671;28;20192;-65
2022/01/29 10:41:35;;;;;;;4.75;3.53;;;11.90;99.90;;;;;;5107160;28;20185;-66
2022/01/29 10:44:11;;;;;;;4.05;3.63;;;11.80;99.90;;;;;;5125963;27;20544;-64
2022/01/29 10:46:49;;;;;;;3.45;3.08;;;11.70;99.90;;;;;;5092310;28;20176;-65
2022/01/29 10:49:29;;;;;;;5.47;2.67;;;11.80;99.90;;;;;;5092804;28;20222;-64
2022/01/29 10:52:10;;;;;;;4.13;2.58;;;11.80;99.90;;;;;;5091872;28;20176;-65
2022/01/29 10:54:43;;;;;;;4.03;2.80;;;11.80;99.90;;;;;;5091906;28;20180;-65
2022/01/29 10:57:15;;;;;;;5.50;3.63;;;11.90;99.90;;;;;;5107501;28;20311;-65
2022/01/29 10:59:52;;;;;;;4.53;2.30;;;12.00;99.90;;;;;;5084880;28;20188;-65
2022/01/29 11:02:20;;;;;;;2.30;2.15;;;12.00;99.90;;;;;;5087069;28;20184;-64
2022/01/29 11:04:48;;;;;;;3.83;2.30;;;12.00;99.90;;;;;;5077706;28;20598;-64
2022/01/29 11:07:17;;;;;;;3.28;2.97;;;12.00;99.90;;;;;;5087185;28;20200;-64
2022/01/29 11:09:50;;;;;;;4.35;2.35;;;12.00;99.90;;;;;;5074803;28;20526;-64
2022/01/29 11:12:27;;;;;;;2.58;2.38;;;12.10;99.90;;;;;;5091638;28;20208;-64
2022/01/29 11:14:55;;;;;;;4.90;2.50;;;12.10;99.90;;;;;;5102676;28;20177;-64
2022/01/29 11:17:25;;;;;;;2.75;2.50;;;12.20;99.90;;;;;;5093479;28;20208;-66
2022/01/29 11:19:52;;;;;;;4.20;3.10;;;12.10;99.90;;;;;;5095019;28;20271;-65
2022/01/29 11:22:24;;;;;;;3.90;2.78;;;12.10;99.90;;;;;;5096034;28;20211;-65
2022/01/29 11:25:01;;;;;;;5.03;3.40;;;12.30;99.90;;;;;;5096095;28;20185;-65
2022/01/29 11:27:32;;;;;;;6.93;2.95;;;12.20;99.90;;;;;;5127988;27;20234;-65
2022/01/29 11:30:07;;;;;;;2.70;2.50;;;12.10;99.90;;;;;;5094437;28;20176;-65
2022/01/29 11:32:43;;;;;;;2.70;2.50;;;12.20;99.90;;;;;;5096004;28;20176;-64
2022/01/29 11:35:14;;;;;;;4.90;3.47;;;12.00;99.90;;;;;;5094297;28;20195;-65
2022/01/29 11:37:57;;;;;;;5.05;2.90;;;12.10;99.90;;;;;;5094262;28;20204;-65
2022/01/29 11:40:36;;;;;;;2.95;2.65;;;12.30;99.90;;;;;;5095274;28;20189;-65
2022/01/29 11:43:13;;;;;;;4.68;2.80;;;12.30;99.90;;;;;;5083644;28;20230;-64
2022/01/29 11:45:58;;;;;;;2.45;2.25;;;12.20;99.90;;;;;;5083757;28;20233;-65
2022/01/29 11:48:24;;;;;;;2.30;2.10;;;12.00;99.90;;;;;;5094665;28;20587;-65
2022/01/29 11:50:51;;;;;;;7.70;2.60;;;12.10;99.90;;;;;;5095301;28;20183;-65
2022/01/29 11:53:18;;;;;;;3.88;2.78;;;12.00;99.90;;;;;;5110695;28;20559;-65
2022/01/29 11:55:55;;;;;;;2.67;2.47;;;12.10;99.90;;;;;;5088118;28;20192;-65
2022/01/29 11:58:26;;;;;;;8.23;3.22;;;12.20;99.90;;;;;;5092199;28;20218;-65
2022/01/29 12:00:57;;;;;;;3.20;2.90;;;12.30;99.90;;;;;;5089115;28;20184;-64
2022/01/29 12:03:40;;;;;;;4.88;2.78;;;12.40;99.90;;;;;;5095796;28;20173;-65
2022/01/29 12:08:40;;;;;;;4.88;4.38;;;12.40;99.90;;;;;;5075912;28;20199;-65
2022/01/29 12:11:11;;;;;;;5.88;3.90;;;12.50;99.90;;;;;;5084107;28;20181;-65
2022/01/29 12:13:37;;;;;;;5.03;3.22;;;12.40;99.90;;;;;;5084262;28;20675;-65
2022/01/29 12:16:05;;;;;;;3.47;3.17;;;12.50;99.90;;;;;;5083241;28;20216;-64
2022/01/29 12:18:34;;;;;;;4.90;2.85;;;12.60;99.90;;;;;;5094525;28;20237;-65
2022/01/29 12:21:01;;;;;;;8.18;4.15;;;12.60;99.90;;;;;;5094794;28;20180;-65
2022/01/29 12:23:27;;;;;;;10.65;3.10;;;12.60;99.90;;;;;;5094236;28;20176;-65
2022/01/29 12:25:56;;;;;;;5.43;3.08;;;12.60;99.90;;;;;;5092463;28;20185;-65
2022/01/29 12:28:22;;;;;;;9.68;3.00;;;12.60;99.90;;;;;;5092076;28;20184;-65
2022/01/29 12:30:48;;;;;;;7.75;3.08;;;12.60;99.90;;;;;;5078287;28;20222;-65
2022/01/29 12:33:20;;;;;;;2.92;2.63;;;12.70;99.90;;;;;;5122233;27;20261;-66
2022/01/29 12:35:49;;;;;;;7.45;3.67;;;12.70;99.90;;;;;;5084440;28;20187;-65
2022/01/29 12:38:18;;;;;;;4.57;3.20;;;12.60;99.90;;;;;;5094593;28;20567;-65
2022/01/29 12:41:00;;;;;;;4.68;3.85;;;12.60;99.90;;;;;;5093703;28;20249;-66
2022/01/29 12:43:41;;;;;;;5.30;3.22;;;12.70;99.90;;;;;;5092774;28;20206;-66
2022/01/29 12:46:09;;;;;;;3.75;3.05;;;12.70;99.90;;;;;;5094834;28;20185;-66
2022/01/29 12:48:35;;;;;;;4.85;2.60;;;12.70;99.90;;;;;;5085476;28;20204;-65
2022/01/29 12:51:09;;;;;;;3.05;2.75;;;12.60;99.90;;;;;;5094240;28;20641;-66
2022/01/29 12:53:35;;;;;;;4.07;2.30;;;12.40;99.90;;;;;;5094576;28;20275;-66
2022/01/29 12:56:10;;;;;;;2.70;2.47;;;12.50;99.90;;;;;;5092696;28;20216;-66